Time;durP1;ratioP1;P1;durP2;ratioP2;P2;SDS_P1;SDS_P2;PMS_P1;PMS_P2;Temp;Humidity;BMP_temperature;BMP_pressure;BME280_temperature;BME280_humidity;BME280_pressure;Samples;Min_cycle;Max_cycle;Signal;HPM_P1;HPM_P2
2022/12/07 00:04:35;;;;;;;31.83;17.95;;;;;;;;;;20922392;28;20041;-65
2022/12/07 00:14:47;;;;;;;34.90;18.70;;;;;;;;;;20922192;28;20088;-66
2022/12/07 00:25:03;;;;;;;31.48;18.52;;;;;;;;;;20922648;28;20048;-63
2022/12/07 00:35:17;;;;;;;26.23;17.08;;;;;;;;;;20920873;28;20064;-68
2022/12/07 00:45:22;;;;;;;33.45;18.85;;;;;;;;;;20920570;28;20049;-65
2022/12/07 00:55:25;;;;;;;31.40;18.80;;;;;;;;;;20920880;28;20045;-66
2022/12/07 01:05:29;;;;;;;28.45;17.25;;;;;;;;;;20919651;28;20134;-61
2022/12/07 01:15:34;;;;;;;28.55;15.80;;;;;;;;;;20917945;28;20062;-61
2022/12/07 01:25:37;;;;;;;27.55;16.60;;;;;;;;;;20917702;28;20052;-60
2022/12/07 01:35:41;;;;;;;23.27;15.82;;;;;;;;;;20915913;28;20477;-62
2022/12/07 01:45:44;;;;;;;22.52;14.50;;;;;;;;;;20915162;28;20052;-61
2022/12/07 01:55:51;;;;;;;22.65;14.13;;;;;;;;;;20914954;28;20049;-61
2022/12/07 02:05:56;;;;;;;22.52;13.45;;;;;;;;;;20914549;28;20052;-62
2022/12/07 02:16:08;;;;;;;23.30;13.55;;;;;;;;;;20914727;28;20052;-61
2022/12/07 02:26:25;;;;;;;22.85;12.73;;;;;;;;;;20913378;28;20111;-61
2022/12/07 02:36:33;;;;;;;20.00;12.82;;;;;;;;;;20913653;28;20198;-61
2022/12/07 02:46:59;;;;;;;18.63;12.13;;;;;;;;;;20912995;28;20041;-61
2022/12/07 02:57:39;;;;;;;23.10;12.48;;;;;;;;;;20912085;28;20427;-62
2022/12/07 03:08:09;;;;;;;24.02;12.50;;;;;;;;;;20911780;28;20049;-61
2022/12/07 03:18:24;;;;;;;23.10;13.07;;;;;;;;;;20911231;28;20053;-61
2022/12/07 03:28:41;;;;;;;25.40;13.88;;;;;;;;;;20911301;28;20440;-62
2022/12/07 03:38:47;;;;;;;21.25;13.27;;;;;;;;;;20914518;28;20057;-60
2022/12/07 03:48:54;;;;;;;26.95;14.55;;;;;;;;;;20925364;28;20135;-60
2022/12/07 03:58:59;;;;;;;22.15;12.52;;;;;;;;;;20924255;28;20049;-60
2022/12/07 04:09:02;;;;;;;24.60;14.73;;;;;;;;;;20923886;28;20071;-63
2022/12/07 04:19:06;;;;;;;25.27;14.52;;;;;;;;;;20922476;28;20049;-61
2022/12/07 04:29:10;;;;;;;21.35;13.63;;;;;;;;;;20922287;28;20060;-61
2022/12/07 04:39:21;;;;;;;21.02;12.38;;;;;;;;;;20921375;28;20139;-62
2022/12/07 04:49:37;;;;;;;23.80;14.18;;;;;;;;;;20919782;28;20499;-60
2022/12/07 04:59:44;;;;;;;20.80;13.60;;;;;;;;;;20919532;28;20053;-63
2022/12/07 05:09:47;;;;;;;24.27;14.43;;;;;;;;;;20918173;28;20083;-60
2022/12/07 05:19:51;;;;;;;18.58;13.15;;;;;;;;;;20918438;28;20110;-64
2022/12/07 05:29:54;;;;;;;23.52;12.02;;;;;;;;;;20916097;28;20571;-61
2022/12/07 05:39:56;;;;;;;23.30;12.60;;;;;;;;;;20916763;28;20069;-60
2022/12/07 05:49:59;;;;;;;21.83;13.30;;;;;;;;;;20915355;28;20164;-61
2022/12/07 06:00:02;;;;;;;22.88;12.43;;;;;;;;;;20915156;28;20067;-61
2022/12/07 06:10:05;;;;;;;24.92;16.80;;;;;;;;;;20915287;28;20056;-62
2022/12/07 06:20:08;;;;;;;22.75;11.40;;;;;;;;;;20913575;28;20136;-61
2022/12/07 06:30:10;;;;;;;21.48;11.48;;;;;;;;;;20913968;28;20132;-61
2022/12/07 06:40:12;;;;;;;26.40;13.15;;;;;;;;;;20912815;28;20052;-61
2022/12/07 06:50:14;;;;;;;28.98;15.40;;;;;;;;;;20913799;28;20090;-62
2022/12/07 07:00:16;;;;;;;31.90;15.13;;;;;;;;;;20911765;28;20083;-61
2022/12/07 07:10:18;;;;;;;28.85;15.65;;;;;;;;;;20912184;28;20053;-61
2022/12/07 07:20:21;;;;;;;29.20;18.00;;;;;;;;;;20927357;28;20049;-61
2022/12/07 07:30:23;;;;;;;34.63;17.60;;;;;;;;;;20927119;28;20081;-61
2022/12/07 07:40:25;;;;;;;38.95;16.98;;;;;;;;;;20926084;28;20048;-60
2022/12/07 07:50:27;;;;;;;35.92;17.90;;;;;;;;;;20926338;28;20484;-61
2022/12/07 08:00:29;;;;;;;37.83;19.63;;;;;;;;;;20924226;28;20052;-61
2022/12/07 08:10:31;;;;;;;43.13;22.52;;;;;;;;;;20922525;28;20041;-61
2022/12/07 08:20:34;;;;;;;43.00;22.70;;;;;;;;;;20923194;28;20488;-60
2022/12/07 08:30:36;;;;;;;46.53;23.20;;;;;;;;;;20922280;28;20470;-61
2022/12/07 08:40:38;;;;;;;47.42;24.50;;;;;;;;;;20921962;28;20068;-61
2022/12/07 08:50:40;;;;;;;47.45;22.67;;;;;;;;;;20920649;28;20066;-60
2022/12/07 09:00:42;;;;;;;46.03;23.30;;;;;;;;;;20920430;28;20057;-61
2022/12/07 09:10:44;;;;;;;49.97;23.85;;;;;;;;;;20918927;28;20068;-61
2022/12/07 09:20:46;;;;;;;44.50;22.30;;;;;;;;;;20918466;28;20048;-62
2022/12/07 09:30:49;;;;;;;45.78;22.95;;;;;;;;;;20916618;28;20133;-61
2022/12/07 09:40:51;;;;;;;37.55;19.70;;;;;;;;;;20916273;28;20119;-63
2022/12/07 09:50:55;;;;;;;39.72;19.00;;;;;;;;;;20916063;28;20056;-61
2022/12/07 10:01:00;;;;;;;17.45;9.57;;;;;;;;;;20918580;28;20106;-65
2022/12/07 10:11:10;;;;;;;27.60;14.85;;;;;;;;;;20913496;28;20448;-64
2022/12/07 10:21:14;;;;;;;27.75;14.65;;;;;;;;;;20913308;28;20103;-63
2022/12/07 10:31:18;;;;;;;29.98;14.43;;;;;;;;;;20912178;28;20049;-70
2022/12/07 10:41:20;;;;;;;25.83;13.50;;;;;;;;;;20912083;28;20056;-66
2022/12/07 10:51:37;;;;;;;23.50;13.05;;;;;;;;;;20920989;28;20055;-68
2022/12/07 11:01:43;;;;;;;23.08;12.75;;;;;;;;;;20928006;28;20479;-67
2022/12/07 11:11:51;;;;;;;28.90;16.13;;;;;;;;;;20927978;28;20503;-59
2022/12/07 11:22:06;;;;;;;46.78;29.80;;;;;;;;;;20926606;28;20187;-60
2022/12/07 11:32:08;;;;;;;32.28;17.08;;;;;;;;;;20926641;28;20072;-68
2022/12/07 11:42:13;;;;;;;24.65;15.05;;;;;;;;;;20926643;28;20058;-72
2022/12/07 11:52:21;;;;;;;30.48;13.23;;;;;;;;;;20925423;28;20124;-55
2022/12/07 12:02:43;;;;;;;145.95;91.45;;;;;;;;;;20922635;28;20059;-57
2022/12/07 12:13:04;;;;;;;27.10;15.55;;;;;;;;;;20921993;28;20443;-62
2022/12/07 12:23:12;;;;;;;26.50;13.68;;;;;;;;;;20922456;28;20106;-61
2022/12/07 12:33:14;;;;;;;22.92;13.10;;;;;;;;;;20921902;28;20060;-60
2022/12/07 12:43:35;;;;;;;22.13;10.65;;;;;;;;;;20921120;28;20128;-58
2022/12/07 12:53:37;;;;;;;25.23;12.52;;;;;;;;;;20919921;28;20055;-60
2022/12/07 13:03:39;;;;;;;19.13;9.68;;;;;;;;;;20901193;28;20524;-61
2022/12/07 13:13:41;;;;;;;22.55;10.45;;;;;;;;;;20919382;28;20111;-65
2022/12/07 13:23:46;;;;;;;20.90;10.45;;;;;;;;;;20997668;28;20041;-61
2022/12/07 13:33:48;;;;;;;16.95;10.52;;;;;;;;;;20999370;28;20088;-60
2022/12/07 13:44:02;;;;;;;20.42;12.23;;;;;;;;;;20998920;28;20048;-60
2022/12/07 13:54:11;;;;;;;21.42;10.80;;;;;;;;;;20998062;28;20056;-59
2022/12/07 14:04:28;;;;;;;14.33;9.17;;;;;;;;;;20998260;28;20061;-63
2022/12/07 14:14:32;;;;;;;18.42;9.95;;;;;;;;;;20997529;28;20309;-60
2022/12/07 14:24:42;;;;;;;13.50;8.18;;;;;;;;;;20996876;28;20067;-61
2022/12/07 14:34:53;;;;;;;13.35;6.85;;;;;;;;;;20994787;28;20052;-61
2022/12/07 14:44:56;;;;;;;18.23;8.70;;;;;;;;;;20995618;28;20385;-60
2022/12/07 14:54:57;;;;;;;14.18;8.77;;;;;;;;;;20995685;28;20045;-61
2022/12/07 15:04:59;;;;;;;14.75;8.40;;;;;;;;;;20995859;28;20408;-61
2022/12/07 15:15:01;;;;;;;16.33;8.30;;;;;;;;;;20995046;28;20079;-62
2022/12/07 15:25:04;;;;;;;11.85;7.85;;;;;;;;;;20977358;28;20079;-62
2022/12/07 15:35:06;;;;;;;12.07;7.65;;;;;;;;;;20998224;28;20048;-61
2022/12/07 15:45:09;;;;;;;19.63;8.80;;;;;;;;;;21010225;28;20136;-61
2022/12/07 15:55:11;;;;;;;16.30;8.77;;;;;;;;;;21007853;28;20106;-61
2022/12/07 16:05:13;;;;;;;13.90;7.07;;;;;;;;;;21007214;28;20073;-61
2022/12/07 16:15:14;;;;;;;4.72;3.47;;;;;;;;;;21007009;28;20053;-64
2022/12/07 16:25:16;;;;;;;12.85;5.57;;;;;;;;;;21006686;28;20072;-62
2022/12/07 16:35:18;;;;;;;12.05;7.15;;;;;;;;;;21002947;28;20060;-63
2022/12/07 16:45:21;;;;;;;12.93;7.65;;;;;;;;;;21003810;28;20118;-75
2022/12/07 16:55:22;;;;;;;16.25;7.90;;;;;;;;;;21002813;28;20105;-67
2022/12/07 17:05:26;;;;;;;14.50;8.48;;;;;;;;;;21001900;28;20072;-72
2022/12/07 17:15:29;;;;;;;12.43;7.55;;;;;;;;;;21000172;28;20052;-64
2022/12/07 17:25:31;;;;;;;21.80;11.95;;;;;;;;;;20999423;28;20052;-62
2022/12/07 17:35:32;;;;;;;13.60;8.73;;;;;;;;;;20997874;28;20049;-63
2022/12/07 17:45:34;;;;;;;21.73;9.50;;;;;;;;;;20997736;28;20052;-60
2022/12/07 17:55:36;;;;;;;8.30;5.35;;;;;;;;;;20997348;28;20102;-66
2022/12/07 18:05:38;;;;;;;20.58;9.35;;;;;;;;;;20996710;28;20123;-61
2022/12/07 18:15:40;;;;;;;18.25;9.80;;;;;;;;;;20995992;28;20080;-61
2022/12/07 18:25:46;;;;;;;19.10;10.02;;;;;;;;;;20989614;28;20079;-59
2022/12/07 18:35:48;;;;;;;16.20;9.38;;;;;;;;;;20993912;28;20460;-60
2022/12/07 18:45:50;;;;;;;20.27;10.88;;;;;;;;;;20994048;28;20057;-59
2022/12/07 18:56:00;;;;;;;20.65;10.07;;;;;;;;;;20994644;28;20443;-59
2022/12/07 19:06:07;;;;;;;19.42;10.82;;;;;;;;;;20992735;28;20456;-61
2022/12/07 19:16:10;;;;;;;22.77;13.95;;;;;;;;;;21008670;28;20059;-62
2022/12/07 19:26:18;;;;;;;23.25;10.60;;;;;;;;;;21008412;28;20048;-60
2022/12/07 19:36:28;;;;;;;23.30;11.30;;;;;;;;;;21008390;28;20481;-60
2022/12/07 19:46:30;;;;;;;24.00;13.37;;;;;;;;;;21007767;28;20550;-61
2022/12/07 19:56:32;;;;;;;22.27;12.65;;;;;;;;;;21007533;28;20381;-61
2022/12/07 20:06:34;;;;;;;25.08;13.30;;;;;;;;;;21007769;28;20056;-63
2022/12/07 20:16:38;;;;;;;29.17;13.52;;;;;;;;;;21007356;28;20084;-61
2022/12/07 20:26:40;;;;;;;27.90;14.15;;;;;;;;;;21004204;28;20109;-60
2022/12/07 20:36:43;;;;;;;21.63;11.65;;;;;;;;;;21003498;28;20484;-63
2022/12/07 20:46:45;;;;;;;25.52;12.27;;;;;;;;;;21002735;28;20055;-60
2022/12/07 20:56:47;;;;;;;24.27;13.90;;;;;;;;;;21001618;28;20048;-65
2022/12/07 21:06:49;;;;;;;22.00;12.27;;;;;;;;;;21000787;28;20045;-61
2022/12/07 21:16:51;;;;;;;18.77;11.85;;;;;;;;;;21001130;28;20080;-60
2022/12/07 21:26:54;;;;;;;25.85;13.77;;;;;;;;;;20999540;28;20057;-60
2022/12/07 21:36:55;;;;;;;26.20;12.82;;;;;;;;;;20997746;28;20056;-61
2022/12/07 21:46:59;;;;;;;24.98;13.55;;;;;;;;;;20998452;28;20083;-61
2022/12/07 21:57:01;;;;;;;20.60;11.95;;;;;;;;;;20998081;28;20048;-62
2022/12/07 22:07:03;;;;;;;23.17;11.18;;;;;;;;;;20998300;28;20052;-60
2022/12/07 22:17:06;;;;;;;18.65;11.30;;;;;;;;;;20996928;28;20182;-59
2022/12/07 22:27:08;;;;;;;19.17;11.63;;;;;;;;;;20996432;28;20048;-60
2022/12/07 22:37:10;;;;;;;21.27;12.98;;;;;;;;;;20996715;28;20512;-63
2022/12/07 22:47:15;;;;;;;20.95;10.63;;;;;;;;;;20996177;28;20086;-62
2022/12/07 22:57:17;;;;;;;16.98;10.45;;;;;;;;;;20995332;28;20055;-60
2022/12/07 23:07:20;;;;;;;17.58;11.18;;;;;;;;;;20995433;28;20417;-62
2022/12/07 23:17:23;;;;;;;21.48;11.20;;;;;;;;;;20995435;28;20051;-59
2022/12/07 23:27:25;;;;;;;19.40;11.00;;;;;;;;;;20994393;28;20127;-64
2022/12/07 23:37:28;;;;;;;18.90;11.50;;;;;;;;;;20994125;28;20052;-63
2022/12/07 23:47:30;;;;;;;21.50;12.07;;;;;;;;;;20993425;28;20036;-60
2022/12/07 23:57:32;;;;;;;22.40;12.35;;;;;;;;;;20999558;28;20052;-60
